Terminal Aerodrome Forecast
Issued by NWS Sioux Falls, SD

Home | Current Version | Previous Version | Graphics & Text | Print | Product List | Glossary Off
Versions: 1 2 3 4 5 6 7 8 9 10 11 12 13 14 15 16 17 18 19 20 21 22 23 24 25 26 27 28 29 30

826
FTUS43 KFSD 111120
TAFSUX
TAF
KSUX 111120Z 1112/1212 28009G15KT P6SM SCT250
     FM111400 31017G27KT P6SM SCT110
     FM111800 32027G38KT P6SM OVC025
     FM120200 33016G26KT P6SM SCT060 SCT250
     FM120800 32009KT P6SM SCT200=

USA.gov is the U.S. government's official web portal to all federal, state and local government web resources and services.